createdAt,value
2023-02-17T00:02:13.614Z,63.90
2023-02-17T00:04:41.631Z,46.70
2023-02-17T00:07:09.514Z,60.50
2023-02-17T00:09:37.987Z,62.90
2023-02-17T00:12:06.340Z,43.00
2023-02-17T00:14:34.313Z,59.60
2023-02-17T00:17:02.079Z,67.00
2023-02-17T00:19:29.901Z,45.30
2023-02-17T00:22:01.623Z,43.00
2023-02-17T00:24:32.677Z,62.90
2023-02-17T00:27:00.709Z,41.20
2023-02-17T00:29:28.761Z,63.70
2023-02-17T00:31:57.169Z,68.30
2023-02-17T00:34:25.924Z,46.10
2023-02-17T00:36:53.908Z,62.30
2023-02-17T00:39:22.179Z,47.20
2023-02-17T00:41:50.276Z,54.30
2023-02-17T00:44:22.705Z,58.10
2023-02-17T00:46:51.082Z,46.90
2023-02-17T00:49:23.320Z,45.20
2023-02-17T00:51:52.017Z,61.30
2023-02-17T00:54:20.627Z,56.30
2023-02-17T00:56:48.480Z,57.00
2023-02-17T00:59:16.275Z,46.40
2023-02-17T01:01:44.563Z,49.20
2023-02-17T01:04:13.185Z,56.70
2023-02-17T01:06:41.541Z,52.00
2023-02-17T01:09:13.948Z,37.40
2023-02-17T01:11:43.526Z,50.00
2023-02-17T01:14:13.959Z,37.50
2023-02-17T01:16:47.739Z,46.70
2023-02-17T01:19:19.631Z,45.00
2023-02-17T01:21:47.733Z,43.00
2023-02-17T01:24:15.563Z,37.70
2023-02-17T01:26:43.445Z,39.80
2023-02-17T01:29:11.275Z,42.60
2023-02-17T01:31:40.741Z,45.00
2023-02-17T01:34:08.560Z,42.20
2023-02-17T01:36:36.363Z,36.30
2023-02-17T01:39:21.958Z,39.10
2023-02-17T01:41:51.954Z,32.60
2023-02-17T01:44:24.579Z,35.20
2023-02-17T01:46:55.852Z,38.70
2023-02-17T01:49:38.503Z,39.20
2023-02-17T01:52:19.755Z,39.50
2023-02-17T01:54:55.572Z,28.60
2023-02-17T01:57:27.881Z,32.40
2023-02-17T01:59:57.082Z,35.40
2023-02-17T02:02:25.189Z,25.90
2023-02-17T02:04:54.029Z,34.80
2023-02-17T02:07:33.521Z,29.10
2023-02-17T02:10:01.384Z,37.00
2023-02-17T02:12:35.707Z,31.90
2023-02-17T02:15:11.147Z,30.00
2023-02-17T02:18:06.831Z,36.60
2023-02-17T02:21:05.071Z,34.00
2023-02-17T02:24:19.754Z,33.90
2023-02-17T02:27:01.445Z,33.70
2023-02-17T02:30:05.443Z,35.20
2023-02-17T02:32:51.046Z,34.60
2023-02-17T02:35:54.966Z,31.60
2023-02-17T02:38:47.625Z,34.20
2023-02-17T02:41:23.933Z,31.60
2023-02-17T02:43:53.251Z,31.70
2023-02-17T02:46:21.075Z,35.30
2023-02-17T02:48:51.245Z,34.00
2023-02-17T02:51:34.683Z,37.00
2023-02-17T02:54:21.294Z,31.40
2023-02-17T02:57:33.649Z,29.70
2023-02-17T03:00:43.837Z,33.30
2023-02-17T03:03:52.927Z,33.90
2023-02-17T03:06:35.365Z,34.10
2023-02-17T03:09:08.867Z,34.20
2023-02-17T03:11:37.121Z,33.30
2023-02-17T03:14:11.836Z,34.30
2023-02-17T03:16:42.081Z,30.50
2023-02-17T03:19:11.873Z,40.40
2023-02-17T03:21:48.693Z,35.70
2023-02-17T03:24:17.174Z,34.60
2023-02-17T03:26:45.465Z,36.70
2023-02-17T03:29:13.384Z,37.80
2023-02-17T03:31:41.531Z,32.40
2023-02-17T03:34:09.444Z,32.50
2023-02-17T03:36:37.274Z,34.30
2023-02-17T03:39:05.113Z,34.50
2023-02-17T03:41:33.025Z,34.50
2023-02-17T03:44:00.960Z,35.90
2023-02-17T03:46:28.948Z,36.30
2023-02-17T03:48:56.824Z,33.60
2023-02-17T03:51:26.168Z,32.30
2023-02-17T03:53:54.065Z,32.40
2023-02-17T03:56:22.068Z,34.70
2023-02-17T03:58:50.095Z,35.10
2023-02-17T04:01:18.099Z,33.80
2023-02-17T04:03:46.480Z,33.40
2023-02-17T04:06:14.469Z,34.40
2023-02-17T04:08:42.624Z,33.00
2023-02-17T04:11:11.136Z,32.70
2023-02-17T04:13:40.158Z,33.60
2023-02-17T04:16:10.347Z,31.20
2023-02-17T04:18:39.164Z,32.10
2023-02-17T04:21:07.556Z,32.00
2023-02-17T04:23:39.047Z,32.70
2023-02-17T04:26:08.838Z,30.30
2023-02-17T04:28:41.560Z,32.40
2023-02-17T04:31:09.808Z,32.20
2023-02-17T04:33:38.114Z,31.40
2023-02-17T04:36:06.850Z,30.20
2023-02-17T04:38:35.788Z,32.20
2023-02-17T04:41:06.494Z,32.90
2023-02-17T04:43:34.417Z,30.90
2023-02-17T04:46:02.394Z,32.60
2023-02-17T04:48:30.389Z,32.70
2023-02-17T04:50:58.282Z,33.00
2023-02-17T04:53:26.144Z,35.30
2023-02-17T04:55:54.086Z,34.10
2023-02-17T04:58:22.539Z,38.50
2023-02-17T05:00:51.291Z,34.70
2023-02-17T05:03:19.998Z,37.70
2023-02-17T05:05:47.987Z,39.00
2023-02-17T05:08:16.058Z,38.80
2023-02-17T05:10:44.401Z,39.40
2023-02-17T05:13:12.669Z,40.90
2023-02-17T05:15:43.071Z,39.80
2023-02-17T05:18:12.396Z,38.40
2023-02-17T05:20:41.158Z,40.30
2023-02-17T05:23:09.348Z,37.90
2023-02-17T05:25:37.321Z,36.70
2023-02-17T05:28:05.205Z,37.80
2023-02-17T05:30:33.682Z,37.80
2023-02-17T05:33:01.673Z,44.30
2023-02-17T05:35:29.832Z,38.90
2023-02-17T05:37:57.682Z,38.40
2023-02-17T05:40:25.553Z,37.70
2023-02-17T05:42:53.379Z,39.20
2023-02-17T05:45:21.264Z,39.80
2023-02-17T05:47:49.196Z,38.60
2023-02-17T05:50:17.236Z,42.80
2023-02-17T05:52:45.097Z,42.50
2023-02-17T05:55:14.336Z,39.30
2023-02-17T05:57:42.214Z,38.90
2023-02-17T06:00:11.771Z,38.40
2023-02-17T06:02:39.741Z,42.70
2023-02-17T06:05:08.695Z,43.20
2023-02-17T06:07:36.776Z,43.50
2023-02-17T06:10:05.701Z,40.40
2023-02-17T06:12:33.706Z,43.50
2023-02-17T06:15:01.792Z,43.10
2023-02-17T06:17:30.757Z,41.30
2023-02-17T06:19:58.906Z,39.70
2023-02-17T06:22:27.019Z,41.20
2023-02-17T06:24:54.978Z,38.70
2023-02-17T06:27:23.059Z,36.20
2023-02-17T06:29:51.129Z,33.10
2023-02-17T06:32:19.031Z,30.60
2023-02-17T06:34:47.052Z,29.60
2023-02-17T06:37:14.849Z,27.80
2023-02-17T06:39:42.874Z,28.10
2023-02-17T06:42:10.989Z,30.00
2023-02-17T06:44:39.069Z,28.00
2023-02-17T06:47:07.188Z,28.40
2023-02-17T06:49:35.227Z,28.20
2023-02-17T06:52:03.181Z,27.80
2023-02-17T06:54:31.118Z,28.00
2023-02-17T06:56:58.994Z,25.30
2023-02-17T06:59:27.132Z,19.50
2023-02-17T07:01:55.335Z,26.60
2023-02-17T07:04:23.620Z,23.00
2023-02-17T07:06:51.542Z,25.90
2023-02-17T07:09:19.684Z,25.70
2023-02-17T07:11:48.622Z,26.10
2023-02-17T07:14:16.963Z,24.10
2023-02-17T07:16:45.048Z,17.50
2023-02-17T07:19:13.560Z,26.90
2023-02-17T07:21:41.611Z,24.60
2023-02-17T07:24:10.386Z,17.40
2023-02-17T07:26:40.717Z,22.00
2023-02-17T07:29:09.157Z,21.90
2023-02-17T07:31:37.548Z,24.50
2023-02-17T07:34:06.206Z,20.70
2023-02-17T07:36:34.291Z,22.50
2023-02-17T07:39:03.871Z,15.30
2023-02-17T07:41:33.952Z,24.60
2023-02-17T07:44:02.507Z,24.30
2023-02-17T07:46:30.684Z,20.80
2023-02-17T07:48:59.067Z,22.00
2023-02-17T07:51:27.135Z,18.00
2023-02-17T07:53:55.770Z,21.80
2023-02-17T07:56:24.541Z,16.30
2023-02-17T07:58:52.549Z,21.10
2023-02-17T08:01:25.888Z,18.00
2023-02-17T08:03:54.580Z,26.60
2023-02-17T08:06:25.803Z,18.60
2023-02-17T08:09:13.720Z,16.00
2023-02-17T08:12:01.888Z,24.80
2023-02-17T08:14:33.585Z,18.70
2023-02-17T08:17:01.743Z,21.60
2023-02-17T08:19:39.724Z,25.30
2023-02-17T08:22:14.980Z,25.00
2023-02-17T08:24:42.958Z,19.30
2023-02-17T08:27:10.865Z,23.30
2023-02-17T08:29:38.877Z,29.70
2023-02-17T08:32:06.995Z,23.20
2023-02-17T08:34:35.527Z,24.70
2023-02-17T08:37:06.814Z,20.80
2023-02-17T08:39:36.452Z,22.30
2023-02-17T08:42:05.293Z,26.30
2023-02-17T08:44:36.849Z,21.60
2023-02-17T08:47:07.044Z,21.10
2023-02-17T08:49:35.075Z,20.30
2023-02-17T08:52:03.805Z,27.10
2023-02-17T08:54:33.074Z,25.30
2023-02-17T08:57:00.892Z,25.60
2023-02-17T08:59:29.104Z,23.00
2023-02-17T09:01:57.858Z,22.70
2023-02-17T09:04:26.599Z,36.60
2023-02-17T09:06:56.972Z,30.50
2023-02-17T09:09:27.039Z,28.00
2023-02-17T09:11:58.716Z,29.70
2023-02-17T09:14:27.892Z,23.20
2023-02-17T09:17:00.378Z,18.40
2023-02-17T09:19:28.788Z,31.80
2023-02-17T09:21:58.228Z,26.30
2023-02-17T09:24:26.339Z,23.30
2023-02-17T09:26:57.152Z,27.50
2023-02-17T09:29:28.844Z,27.60
2023-02-17T09:31:58.945Z,25.30
2023-02-17T09:34:27.016Z,23.50
2023-02-17T09:36:55.229Z,24.60
2023-02-17T09:39:25.607Z,25.90
2023-02-17T09:41:55.501Z,31.40
2023-02-17T09:45:00.437Z,30.80
2023-02-17T09:47:45.554Z,24.30
2023-02-17T09:50:23.318Z,22.90
2023-02-17T09:53:14.238Z,32.80
2023-02-17T09:55:52.546Z,29.50
2023-02-17T09:58:38.658Z,21.60
2023-02-17T10:01:21.859Z,23.40
2023-02-17T10:05:05.971Z,21.90
2023-02-17T10:08:08.925Z,26.50
2023-02-17T10:11:28.405Z,33.30
2023-02-17T10:14:20.456Z,33.90
2023-02-17T10:17:00.145Z,32.50
2023-02-17T10:20:01.237Z,36.10
2023-02-17T10:22:34.605Z,27.30
2023-02-17T10:25:22.499Z,28.60
2023-02-17T10:28:09.887Z,20.60
2023-02-17T10:31:04.795Z,32.40
2023-02-17T10:33:32.815Z,25.30
2023-02-17T10:36:37.926Z,22.50
2023-02-17T10:39:36.944Z,25.60
2023-02-17T10:42:06.264Z,33.20
2023-02-17T10:44:38.206Z,20.60
2023-02-17T10:47:06.186Z,28.40
2023-02-17T10:49:46.823Z,19.80
2023-02-17T10:52:23.250Z,25.70
2023-02-17T10:55:06.524Z,28.30
2023-02-17T10:57:42.282Z,19.30
2023-02-17T11:00:19.018Z,22.80
2023-02-17T11:02:52.374Z,27.00
2023-02-17T11:05:33.732Z,29.00
2023-02-17T11:08:28.591Z,19.50
2023-02-17T11:11:13.396Z,16.70
2023-02-17T11:13:57.528Z,23.70
2023-02-17T11:16:45.806Z,20.50
2023-02-17T11:19:35.873Z,25.20
2023-02-17T11:22:22.705Z,24.70
2023-02-17T11:25:00.581Z,23.00
2023-02-17T11:27:28.798Z,21.90
2023-02-17T11:30:15.531Z,18.00
2023-02-17T11:32:43.477Z,20.30
2023-02-17T11:35:38.295Z,23.70
2023-02-17T11:38:20.512Z,26.20
2023-02-17T11:41:00.283Z,21.90
2023-02-17T11:43:31.445Z,24.30
2023-02-17T11:46:22.100Z,18.60
2023-02-17T11:49:57.072Z,23.30
2023-02-17T11:53:20.386Z,22.60
2023-02-17T11:56:13.677Z,21.10
2023-02-17T11:59:07.204Z,18.70
2023-02-17T12:02:03.163Z,16.40
2023-02-17T12:04:45.526Z,19.70
2023-02-17T12:07:38.931Z,20.00
2023-02-17T12:10:37.476Z,21.30
2023-02-17T12:13:36.143Z,15.60
2023-02-17T12:16:23.141Z,15.80
2023-02-17T12:19:37.253Z,17.60
2023-02-17T12:22:36.037Z,13.20
2023-02-17T12:25:27.310Z,13.80
2023-02-17T12:28:01.621Z,13.70
2023-02-17T12:30:55.305Z,15.70
2023-02-17T12:33:50.768Z,13.80
2023-02-17T12:36:22.800Z,14.20
2023-02-17T12:38:58.976Z,14.30
2023-02-17T12:41:48.575Z,15.70
2023-02-17T12:45:12.404Z,12.20
2023-02-17T12:47:55.842Z,14.30
2023-02-17T12:50:56.694Z,14.10
2023-02-17T12:54:05.607Z,13.40
2023-02-17T12:57:16.302Z,12.40
2023-02-17T12:59:51.183Z,14.00
2023-02-17T13:02:23.952Z,9.30
2023-02-17T13:05:01.813Z,12.30
2023-02-17T13:07:39.659Z,10.10
2023-02-17T13:10:28.783Z,10.90
2023-02-17T13:13:03.351Z,11.90
2023-02-17T13:15:36.833Z,10.50
2023-02-17T13:18:24.945Z,9.80
2023-02-17T13:21:28.808Z,9.00
2023-02-17T13:24:30.591Z,11.80
2023-02-17T13:27:20.151Z,7.90
2023-02-17T13:30:04.090Z,8.50
2023-02-17T13:32:38.277Z,8.70
2023-02-17T13:35:18.635Z,10.20
2023-02-17T13:37:46.950Z,7.40
2023-02-17T13:40:20.597Z,7.10
2023-02-17T13:43:08.915Z,7.10
2023-02-17T13:45:58.526Z,9.20
2023-02-17T13:48:35.823Z,7.40
2023-02-17T13:51:07.098Z,4.00
2023-02-17T13:53:41.925Z,5.70
2023-02-17T13:56:26.960Z,6.70
2023-02-17T13:59:07.364Z,4.00
2023-02-17T14:01:40.742Z,7.50
2023-02-17T14:04:30.712Z,4.90
2023-02-17T14:07:04.039Z,5.90
2023-02-17T14:09:35.059Z,7.20
2023-02-17T14:12:07.319Z,4.40
2023-02-17T14:14:39.414Z,6.30
2023-02-17T14:17:28.153Z,8.10
2023-02-17T14:19:56.141Z,8.80
2023-02-17T14:22:32.870Z,6.40
2023-02-17T14:25:12.661Z,5.60
2023-02-17T14:27:47.025Z,5.40
2023-02-17T14:30:31.710Z,7.50
2023-02-17T14:33:18.000Z,6.30
2023-02-17T14:36:06.570Z,5.20
2023-02-17T14:38:41.123Z,5.90
2023-02-17T14:41:10.015Z,5.10
2023-02-17T14:43:38.404Z,5.50
2023-02-17T14:46:06.637Z,7.90
2023-02-17T14:48:35.521Z,6.60
2023-02-17T14:51:03.770Z,6.40
2023-02-17T14:53:36.582Z,6.30
2023-02-17T14:56:16.936Z,7.60
2023-02-17T14:58:45.315Z,4.50
2023-02-17T15:01:15.750Z,4.20
2023-02-17T15:03:43.993Z,4.60
2023-02-17T15:06:23.767Z,5.30
2023-02-17T15:08:52.883Z,4.50
2023-02-17T15:11:34.648Z,6.70
2023-02-17T15:14:04.120Z,5.20
2023-02-17T15:16:32.235Z,6.20
2023-02-17T15:19:00.253Z,5.90
2023-02-17T15:21:34.614Z,3.70
2023-02-17T15:24:06.708Z,3.00
2023-02-17T15:26:34.692Z,4.60
2023-02-17T15:29:02.947Z,4.50
2023-02-17T15:31:34.000Z,3.30
2023-02-17T15:34:02.302Z,4.70
2023-02-17T15:36:30.468Z,3.60
2023-02-17T15:38:58.893Z,4.10
2023-02-17T15:41:30.607Z,4.70
2023-02-17T15:44:01.490Z,4.70
2023-02-17T15:46:33.284Z,2.40
2023-02-17T15:49:01.294Z,6.70
2023-02-17T15:51:29.402Z,2.40
2023-02-17T15:53:57.779Z,5.90
2023-02-17T15:56:32.245Z,3.40
2023-02-17T15:59:29.155Z,4.90
2023-02-17T16:01:57.580Z,3.40
2023-02-17T16:04:25.624Z,3.30
2023-02-17T16:06:53.681Z,3.40
2023-02-17T16:09:21.806Z,2.30
2023-02-17T16:11:54.342Z,3.10
2023-02-17T16:14:35.256Z,4.20
2023-02-17T16:17:10.136Z,4.20
2023-02-17T16:19:37.987Z,3.40
2023-02-17T16:22:06.431Z,4.50
2023-02-17T16:24:35.146Z,5.20
2023-02-17T16:27:03.419Z,5.90
2023-02-17T16:29:31.603Z,3.40
2023-02-17T16:31:59.531Z,2.80
2023-02-17T16:34:32.392Z,4.90
2023-02-17T16:37:04.175Z,4.80
2023-02-17T16:39:32.181Z,4.30
2023-02-17T16:42:00.258Z,2.80
2023-02-17T16:44:28.192Z,5.60
2023-02-17T16:46:57.504Z,5.20
2023-02-17T16:49:33.873Z,6.00
2023-02-17T16:52:06.843Z,3.60
2023-02-17T16:54:35.859Z,3.30
2023-02-17T16:57:04.214Z,3.50
2023-02-17T16:59:32.515Z,4.70
2023-02-17T17:02:01.706Z,5.70
2023-02-17T17:04:30.361Z,4.30
2023-02-17T17:07:00.624Z,3.70
2023-02-17T17:09:29.510Z,3.70
2023-02-17T17:11:57.743Z,6.70
2023-02-17T17:14:25.805Z,4.90
2023-02-17T17:17:01.023Z,4.80
2023-02-17T17:19:32.236Z,5.80
2023-02-17T17:22:00.371Z,4.60
2023-02-17T17:24:34.168Z,5.20
2023-02-17T17:27:02.340Z,4.30
2023-02-17T17:29:30.496Z,3.20
2023-02-17T17:32:01.901Z,5.00
2023-02-17T17:34:30.141Z,4.30
2023-02-17T17:37:00.092Z,3.10
2023-02-17T17:39:28.174Z,4.30
2023-02-17T17:41:57.589Z,3.60
2023-02-17T17:44:28.173Z,2.50
2023-02-17T17:46:59.309Z,3.00
2023-02-17T17:49:27.414Z,3.30
2023-02-17T17:52:02.585Z,3.60
2023-02-17T17:54:36.170Z,4.00
2023-02-17T17:57:07.241Z,2.50
2023-02-17T17:59:35.860Z,4.50
2023-02-17T18:02:03.874Z,3.80
2023-02-17T18:04:35.112Z,2.90
2023-02-17T18:07:03.619Z,5.20
2023-02-17T18:09:37.835Z,4.00
2023-02-17T18:12:14.280Z,5.20
2023-02-17T18:14:44.900Z,9.20
2023-02-17T18:17:15.987Z,6.50
2023-02-17T18:19:47.591Z,5.90
2023-02-17T18:22:16.063Z,5.00
2023-02-17T18:24:46.415Z,9.60
2023-02-17T18:27:15.606Z,5.50
2023-02-17T18:29:43.727Z,12.50
2023-02-17T18:32:12.831Z,7.30
2023-02-17T18:34:40.962Z,4.80
2023-02-17T18:37:08.965Z,6.10
2023-02-17T18:39:36.911Z,6.00
2023-02-17T18:42:11.327Z,7.10
2023-02-17T18:44:42.709Z,9.80
2023-02-17T18:47:10.869Z,9.40
2023-02-17T18:49:38.844Z,6.10
2023-02-17T18:52:07.569Z,6.50
2023-02-17T18:54:40.455Z,8.80
2023-02-17T18:57:08.648Z,6.10
2023-02-17T18:59:37.354Z,10.20
2023-02-17T19:02:07.841Z,8.80
2023-02-17T19:04:37.032Z,7.10
2023-02-17T19:07:11.074Z,5.20
2023-02-17T19:09:44.799Z,6.80
2023-02-17T19:12:15.501Z,6.40
2023-02-17T19:14:48.712Z,9.10
2023-02-17T19:17:19.604Z,7.20
2023-02-17T19:19:47.694Z,10.10
2023-02-17T19:22:18.172Z,8.00
2023-02-17T19:24:52.866Z,11.30
2023-02-17T19:27:22.746Z,10.50
2023-02-17T19:29:50.989Z,9.30
2023-02-17T19:32:20.151Z,9.50
2023-02-17T19:34:48.219Z,10.60
2023-02-17T19:37:17.059Z,11.10
2023-02-17T19:39:45.757Z,7.40
2023-02-17T19:42:13.743Z,6.10
2023-02-17T19:44:42.014Z,8.40
2023-02-17T19:47:09.924Z,9.10
2023-02-17T19:49:37.891Z,16.80
2023-02-17T19:52:06.485Z,9.70
2023-02-17T19:54:34.422Z,5.80
2023-02-17T19:57:02.737Z,6.10
2023-02-17T19:59:33.766Z,10.80
2023-02-17T20:02:01.756Z,9.90
2023-02-17T20:04:30.368Z,10.00
2023-02-17T20:06:58.783Z,14.80
2023-02-17T20:09:33.475Z,7.30
2023-02-17T20:12:01.515Z,13.70
2023-02-17T20:14:29.489Z,13.90
2023-02-17T20:16:57.647Z,8.00
2023-02-17T20:19:25.479Z,14.80
2023-02-17T20:21:53.984Z,12.90
2023-02-17T20:24:22.057Z,17.10
2023-02-17T20:26:51.256Z,17.60
2023-02-17T20:29:19.264Z,14.90
2023-02-17T20:31:47.324Z,9.60
2023-02-17T20:34:28.945Z,8.50
2023-02-17T20:36:59.176Z,12.40
2023-02-17T20:39:28.227Z,11.60
2023-02-17T20:41:57.114Z,9.50
2023-02-17T20:44:28.474Z,7.70
2023-02-17T20:46:57.490Z,11.90
2023-02-17T20:49:26.516Z,12.90
2023-02-17T20:51:55.274Z,8.40
2023-02-17T20:54:25.703Z,9.70
2023-02-17T20:56:53.793Z,8.70
2023-02-17T20:59:21.811Z,13.70
2023-02-17T21:01:50.587Z,13.70
2023-02-17T21:04:18.904Z,16.10
2023-02-17T21:06:48.188Z,11.50
2023-02-17T21:09:20.178Z,11.10
2023-02-17T21:11:48.172Z,10.50
2023-02-17T21:14:16.325Z,15.40
2023-02-17T21:16:44.984Z,12.60
2023-02-17T21:19:13.169Z,11.90
2023-02-17T21:21:41.182Z,14.00
2023-02-17T21:24:09.256Z,9.30
2023-02-17T21:26:37.289Z,8.40
2023-02-17T21:29:05.440Z,9.40
2023-02-17T21:31:33.910Z,10.80
2023-02-17T21:34:01.987Z,6.90
2023-02-17T21:36:29.963Z,14.90
2023-02-17T21:38:59.240Z,11.60
2023-02-17T21:41:29.075Z,14.00
2023-02-17T21:44:15.629Z,11.20
2023-02-17T21:46:45.361Z,13.60
2023-02-17T21:49:14.300Z,4.40
2023-02-17T21:51:42.401Z,12.70
2023-02-17T21:54:10.701Z,14.20
2023-02-17T21:56:38.826Z,9.40
2023-02-17T21:59:07.738Z,10.70
2023-02-17T22:01:35.996Z,9.40
2023-02-17T22:04:04.379Z,7.70
2023-02-17T22:06:37.187Z,13.10
2023-02-17T22:09:07.505Z,9.50
2023-02-17T22:11:39.934Z,10.50
2023-02-17T22:14:14.203Z,16.00
2023-02-17T22:16:43.472Z,12.40
2023-02-17T22:19:24.074Z,13.10
2023-02-17T22:21:53.513Z,10.80
2023-02-17T22:24:21.468Z,8.40
2023-02-17T22:26:50.251Z,10.80
2023-02-17T22:29:18.164Z,6.40
2023-02-17T22:31:47.572Z,12.90
2023-02-17T22:34:15.876Z,14.90
2023-02-17T22:36:43.704Z,14.10
2023-02-17T22:39:11.811Z,15.00
2023-02-17T22:41:40.884Z,17.70
2023-02-17T22:44:09.122Z,13.70
2023-02-17T22:46:36.953Z,14.10
2023-02-17T22:49:04.983Z,8.60
2023-02-17T22:51:39.359Z,8.60
2023-02-17T22:54:08.466Z,11.70
2023-02-17T22:56:37.448Z,10.50
2023-02-17T22:59:07.010Z,10.20
2023-02-17T23:01:36.927Z,14.10
2023-02-17T23:04:06.008Z,15.30
2023-02-17T23:06:37.772Z,9.60
2023-02-17T23:09:08.970Z,9.40
2023-02-17T23:11:55.014Z,13.00
2023-02-17T23:14:37.922Z,10.70
2023-02-17T23:17:13.377Z,15.00
2023-02-17T23:19:42.523Z,10.00
2023-02-17T23:22:16.386Z,11.00
2023-02-17T23:24:48.046Z,10.30
2023-02-17T23:27:16.072Z,12.00
2023-02-17T23:29:43.905Z,13.70
2023-02-17T23:32:11.901Z,20.10
2023-02-17T23:34:40.382Z,17.40
2023-02-17T23:37:08.179Z,15.70
2023-02-17T23:39:39.167Z,11.80
2023-02-17T23:42:07.222Z,14.50
2023-02-17T23:44:35.320Z,18.50
2023-02-17T23:47:03.761Z,11.30
2023-02-17T23:49:31.712Z,12.90
2023-02-17T23:51:59.883Z,19.00
2023-02-17T23:54:28.265Z,16.90
2023-02-17T23:56:56.151Z,10.80
2023-02-17T23:59:24.073Z,14.50
